Flight Track Log - Related Links

Times and Time Zones

All times are in EST time to prevent confusion due to time zone crossing. See the N319EE flight status page for this flight to view local times or setup timezone preferences in your user account.

Time Position Orientation Groundspeed Altitude Reporting Facility
EST Latitude Longitude Course Direction KTS MPH feet Rate Location/Type
Mon 02:39:32 PM 41.0892 -73.7264 281° West 141 162 1,500  Level Boston Center
Mon 02:40:45 PM 41.1000 -73.8000 281° West 152 175 4,900 2,481 Climbing New York TRACON
Mon 02:41:45 PM 41.1167 -73.8333 304° West 160 184 7,000 2,012 Climbing New York TRACON
Mon 02:43:35 PM 41.1731 -73.7233 56° Northeast 228 262 10,600 1,930 Climbing Boston Center
Mon 02:44:36 PM 41.2031 -73.6414 64° Northeast 245 282 12,500 2,083 Climbing Boston Center
Mon 02:45:36 PM 41.2361 -73.5497 64° Northeast 256 295 14,800 1,694 Climbing Boston Center
Mon 02:46:40 PM 41.2675 -73.4594 65° Northeast 268 308 16,000 581 Climbing Boston Center
Mon 02:47:40 PM 41.3078 -73.3458 65° Northeast 338 389 16,000 50 Level Boston Center
Mon 02:48:40 PM 41.3658 -73.2364 55° Northeast 353 406 16,100 488 Climbing Boston Center
Mon 02:49:43 PM 41.4447 -73.1858 26° Northeast 315 362 17,000 443 Climbing Boston Center
Mon 02:50:42 PM 41.5269 -73.1333 26° Northeast 327 376 17,000  Level Boston Center
Mon 02:51:46 PM 41.6156 -73.0758 26° Northeast 329 379 17,000 48 Level Boston Center
Mon 02:52:46 PM 41.6981 -73.0222 26° Northeast 327 376 17,100  Climbing Boston Center
Mon 02:53:47 PM 41.7811 -72.9672 26° Northeast 330 380 17,000 -49 Descending Boston Center
Mon 02:54:48 PM 41.8642 -72.9114 27° Northeast 333 383 17,000 50 Level Boston Center
Mon 02:55:48 PM 41.9475 -72.8556 26° Northeast 332 382 17,100  Climbing Boston Center
Mon 02:56:50 PM 42.0306 -72.8011 26° Northeast 331 381 17,000  Descending Boston Center
Mon 02:57:52 PM 42.1206 -72.7419 26° Northeast 332 382 17,100 49 Climbing Boston Center
Mon 02:58:53 PM 42.2019 -72.6878 26° Northeast 326 375 17,100  Level Boston Center
Mon 02:59:53 PM 42.2828 -72.6331 27° Northeast 325 374 17,100  Level Boston Center
Mon 03:00:54 PM 42.3642 -72.5811 25° Northeast 328 377 17,100  Level Boston Center
Mon 03:01:54 PM 42.4356 -72.5025 39° Northeast 369 425 17,100  Level Boston Center
Mon 03:02:58 PM 42.5042 -72.4150 43° Northeast 348 400 17,100  Level Boston Center
Mon 03:03:58 PM 42.5722 -72.3267 44° Northeast 342 394 17,100  Level Boston Center
Mon 03:04:59 PM 42.6503 -72.2242 44° Northeast 342 394 17,100  Level Boston Center
Mon 03:06:00 PM 42.7183 -72.1344 44° Northeast 341 392 17,100 -290 Level Boston Center
Mon 03:07:03 PM 42.7872 -72.0436 44° Northeast 344 396 16,500 -780 Descending Boston Center
Mon 03:08:03 PM 42.8661 -71.9417 43° Northeast 360 414 15,500 -1,140 Descending Boston Center
Mon 03:09:04 PM 42.9367 -71.8475 44° Northeast 355 409 14,200 -1,279 Descending Boston Center
Mon 03:10:05 PM 43.0050 -71.7586 44° Northeast 342 394 12,900 -1,240 Descending Boston Center
Mon 03:11:05 PM 43.0700 -71.6708 45° Northeast 330 380 11,700 -919 Descending Boston Center
Mon 03:12:09 PM 43.1339 -71.5844 45° Northeast 323 372 11,000 -336 Descending Boston Center
Mon 03:13:10 PM 43.1986 -71.4978 44° Northeast 303 349 11,000  Level Boston Center
Mon 03:14:11 PM 43.2558 -71.4208 44° Northeast 290 334 11,000  Level Boston Center
Mon 03:15:12 PM 43.3125 -71.3439 45° Northeast 287 330 11,000  Level Boston Center
Mon 03:16:12 PM 43.3697 -71.2669 44° Northeast 288 331 11,000 50 Level Boston Center
Mon 03:17:13 PM 43.4275 -71.1889 44° Northeast 290 334 11,100  Climbing Boston Center
Mon 03:18:13 PM 43.4769 -71.0917 55° Northeast 294 338 11,000 -290 Descending Boston Center
Mon 03:19:17 PM 43.5067 -70.9842 69° East 300 345 10,500 -912 Descending Boston Center
Mon 03:20:18 PM 43.5375 -70.8689 70° East 317 365 9,100 -1,438 Descending Boston Center
Mon 03:21:18 PM 43.5597 -70.7450 76° East 317 365 7,600 -1,289 Descending Boston Center
Mon 03:22:19 PM 43.5783 -70.6336 77° East 302 348 6,500 -992 Descending Boston Center
Mon 03:23:19 PM 43.5697 -70.5225 96° East 296 341 5,600 -774 Descending Boston Center
Mon 03:24:23 PM 43.5578 -70.4064 98° East 286 329 4,900 -787 Descending Boston Center
Mon 03:25:21 PM 43.5494 -70.3150 97° East 247 284 4,000 -934 Descending Boston Center
Mon 03:26:25 PM 43.5478 -70.2378 92° East 207 238 3,000 -288 Descending Boston Center
Mon 03:27:26 PM 43.5650 -70.1683 71° East 201 231 3,400 -50 Climbing Boston Center
Mon 03:28:26 PM 43.6133 -70.1575 North 180 207 2,900 -885 Descending Boston Center
Mon 03:29:28 PM 43.6394 -70.2111 304° West 159 183 1,600 -1,131 Descending Boston Center
Mon 03:30:28 PM 43.6422 -70.2672 274° West 147 169 600 -744 Descending Boston Center
Mon 03:31:29 PM 43.6456 -70.3117 276° West 140 161 100 -492 Descending Boston Center

Login

Don't have an account? Register now (free) for customized features, flight alerts, and more!